Salem, IN

12:09 PM EDT on June 29, 2017 (GMT -0400)
N/W Washington County | | Change Station

Elev 804 ft 38.70 °N, 86.29 °W | Updated 14 seconds ago

Partly Cloudy
Partly Cloudy
81.5 °F
Feels Like 80 °F
N
6.5
Wind Variable Wind from SW
Gusts 7.4 mph

Today
High -- | Low -- °F
--% Chance of Precip.
Yesterday
High -- | Low -- °F
Precip. -- in
Pressure 29.99 in
Visibility 10.0 miles
Clouds Scattered Clouds 3700 ft
Heat Index 80 °F
Dew Point 45 °F
Humidity 28%
Rainfall 0.00 in
Snow Depth Not available.
6:22 AM 9:12 PM
Waxing Crescent, 36% visible
METAR KLOU 291553Z 22009G19KT 10SM SCT037 28/21 A3000 RMK AO2 SLP155 T02830206
Pressure 29.99 in
Visibility 10.0 miles
Clouds Scattered Clouds 3700 ft
Heat Index 80 °F
Dew Point 45 °F
Humidity 28%
Rainfall 0.00 in
Snow Depth Not available.
6:22 AM 9:12 PM
Waxing Crescent, 36% visible
METAR KLOU 291553Z 22009G19KT 10SM SCT037 28/21 A3000 RMK AO2 SLP155 T02830206

Get Severe Weather Alerts

Thanks for signing up!

Be on the lookout for a verification email in your inbox.

You'll start receiving the daily forecast at 6 AM.

×

10-Day Weather Forecast

Almanac

Astronomy

Jun. 29, 2017 Rise Set
Actual Time
Civil Twilight
Nautical Twilight
Astronomical Twilight
Moon
Length of Visible Light
Length of Day
Tomorrow will be .
, % of the Moon is Illuminated

Today's Extremes

State Highs State Lows

Community

WunderPhotos

Category 6

Welcome to Category 6. This is the collective home for Weather Underground's featured writeups by Dr. Jeff Masters (right), Bob Henson (left), Chris Burt, and other regular contributors.

Nearby

Air Quality

  Air Quality AQ Index Pollutant
Not available.

Snow Depth

Station Depth Elevation

Earthquake Activity

City Distance Mag. Time & Date
Minimum magnitude displayed is 2.5.

Coastal Water Temperatures

Place Temperature

Stations

Nearby Weather Stations

Station Location Temp. Windchill Dew Point Humidity Wind Precip. Elev Updated Type
                   

Watches & Warnings

There are currently no watches in effect.